Time;durP1;ratioP1;P1;durP2;ratioP2;P2;SDS_P1;SDS_P2;PMS_P1;PMS_P2;Temp;Humidity;BMP_temperature;BMP_pressure;BME280_temperature;BME280_humidity;BME280_pressure;Samples;Min_cycle;Max_cycle;Signal;HPM_P1;HPM_P2
2022/11/03 00:02:11;;;;;;;10.37;3.93;;;;;;;8.25;100.00;99449.00;5112603;28;20195;-79
2022/11/03 00:04:40;;;;;;;14.70;4.23;;;;;;;8.03;100.00;99446.59;5111413;28;20191;-79
2022/11/03 00:07:14;;;;;;;11.23;3.50;;;;;;;8.16;100.00;99449.47;5109719;28;20195;-79
2022/11/03 00:09:42;;;;;;;9.03;4.27;;;;;;;8.24;100.00;99450.81;5113005;28;20195;-79
2022/11/03 00:12:14;;;;;;;12.90;3.73;;;;;;;8.17;100.00;99453.81;5109463;28;20191;-79
2022/11/03 00:14:42;;;;;;;9.33;4.20;;;;;;;8.18;100.00;99445.81;5114986;28;20701;-79
2022/11/03 00:17:12;;;;;;;9.70;3.70;;;;;;;8.30;100.00;99439.94;5115039;28;20195;-79
2022/11/03 00:19:41;;;;;;;11.53;3.90;;;;;;;8.22;100.00;99439.47;5072523;28;20199;-79
2022/11/03 00:22:09;;;;;;;12.47;4.10;;;;;;;8.24;100.00;99434.97;5114108;28;20183;-79
2022/11/03 00:24:38;;;;;;;14.33;4.40;;;;;;;8.20;100.00;99438.72;5107628;28;20230;-79
2022/11/03 00:27:07;;;;;;;12.80;4.27;;;;;;;8.29;100.00;99427.66;5110429;28;20217;-79
2022/11/03 00:29:35;;;;;;;12.67;3.87;;;;;;;8.30;100.00;99429.41;5112510;28;20228;-79
2022/11/03 00:32:04;;;;;;;11.67;4.00;;;;;;;8.38;100.00;99431.66;5118902;28;20194;-79
2022/11/03 00:34:34;;;;;;;14.60;4.43;;;;;;;8.47;100.00;99431.19;5062728;28;20196;-78
2022/11/03 00:37:03;;;;;;;10.87;3.90;;;;;;;8.37;100.00;99437.88;5115741;28;20240;-78
2022/11/03 00:39:31;;;;;;;14.63;4.47;;;;;;;8.41;100.00;99444.72;5120354;28;20249;-79
2022/11/03 00:41:59;;;;;;;16.27;4.47;;;;;;;8.50;100.00;99441.63;5110936;28;20194;-79
2022/11/03 00:44:29;;;;;;;11.03;3.43;;;;;;;8.64;100.00;99437.41;5073223;28;20198;-79
2022/11/03 00:46:58;;;;;;;13.40;3.77;;;;;;;8.74;100.00;99434.19;5116224;28;20187;-79
2022/11/03 00:49:27;;;;;;;17.00;3.93;;;;;;;8.68;100.00;99431.00;5115139;28;20195;-79
2022/11/03 00:51:57;;;;;;;12.10;3.80;;;;;;;8.65;100.00;99423.25;5108377;28;20654;-79
2022/11/03 00:54:25;;;;;;;13.23;3.53;;;;;;;8.73;100.00;99410.50;5110256;28;20230;-78
2022/11/03 00:56:53;;;;;;;13.83;4.33;;;;;;;8.60;100.00;99408.53;5108843;28;20214;-79
2022/11/03 00:59:23;;;;;;;11.50;3.63;;;;;;;8.55;100.00;99410.53;5079642;28;20187;-79
2022/11/03 01:01:51;;;;;;;18.80;4.10;;;;;;;8.51;100.00;99413.44;5114625;28;20696;-79
2022/11/03 01:07:11;;;;;;;12.53;3.90;;;;;;;8.47;100.00;99404.78;5110147;28;20206;-79
2022/11/03 01:09:42;;;;;;;11.93;4.00;;;;;;;8.37;100.00;99410.63;5062552;28;20191;-79
2022/11/03 01:12:11;;;;;;;9.70;4.33;;;;;;;8.51;100.00;99400.22;5111465;28;20241;-79
2022/11/03 01:14:42;;;;;;;11.80;3.80;;;;;;;8.31;100.00;99393.31;5111321;28;20211;-79
2022/11/03 01:17:12;;;;;;;9.97;3.53;;;;;;;8.44;100.00;99390.91;5114043;28;20697;-79
2022/11/03 01:19:41;;;;;;;8.77;3.87;;;;;;;8.49;100.00;99379.19;5107244;28;20244;-79
2022/11/03 01:22:12;;;;;;;13.83;4.10;;;;;;;8.40;100.00;99386.72;5107425;28;20203;-79
2022/11/03 01:24:43;;;;;;;13.70;4.10;;;;;;;8.45;100.00;99380.28;5109118;28;20650;-79
2022/11/03 01:27:13;;;;;;;11.63;3.73;;;;;;;8.44;100.00;99380.34;5109160;28;20195;-79
2022/11/03 01:29:42;;;;;;;12.30;3.97;;;;;;;8.51;100.00;99374.69;5109023;28;20198;-79
2022/11/03 01:32:11;;;;;;;9.93;3.80;;;;;;;8.63;100.00;99369.69;5062350;28;20187;-78
2022/11/03 01:34:39;;;;;;;8.43;3.57;;;;;;;8.60;100.00;99363.66;5111045;28;20228;-79
2022/11/03 01:37:08;;;;;;;14.30;4.50;;;;;;;8.60;100.00;99378.63;5109655;28;20215;-79
2022/11/03 01:39:38;;;;;;;10.77;3.73;;;;;;;8.72;100.00;99370.06;5113776;28;20188;-79
2022/11/03 01:42:06;;;;;;;16.97;3.53;;;;;;;8.75;100.00;99353.19;5058522;28;20247;-79
2022/11/03 01:44:37;;;;;;;11.20;3.80;;;;;;;8.79;100.00;99352.09;5050851;28;20193;-79
2022/11/03 01:47:13;;;;;;;10.07;3.30;;;;;;;8.71;100.00;99351.66;5046586;28;20304;-79
2022/11/03 01:49:48;;;;;;;9.00;3.40;;;;;;;8.86;100.00;99349.03;5044837;28;20201;-79
2022/11/03 01:52:20;;;;;;;16.07;3.77;;;;;;;8.96;100.00;99345.88;5049559;28;20686;-79
2022/11/03 01:54:58;;;;;;;10.10;3.43;;;;;;;8.93;100.00;99336.34;5050617;28;20219;-79
2022/11/03 01:57:33;;;;;;;13.17;4.07;;;;;;;8.94;100.00;99338.06;5046498;28;20232;-79
2022/11/03 02:00:08;;;;;;;9.67;3.30;;;;;;;8.88;100.00;99328.69;5050945;28;20196;-79
2022/11/03 02:02:37;;;;;;;14.00;3.87;;;;;;;8.84;100.00;99326.28;5077907;28;20191;-78
2022/11/03 02:05:08;;;;;;;11.67;3.03;;;;;;;8.93;100.00;99335.50;5110581;28;20203;-78
2022/11/03 02:07:45;;;;;;;11.13;3.70;;;;;;;8.90;100.00;99320.69;5109248;28;20252;-79
2022/11/03 02:10:16;;;;;;;9.17;3.50;;;;;;;8.96;100.00;99328.25;5111598;28;20186;-79
2022/11/03 02:12:44;;;;;;;11.13;3.30;;;;;;;8.96;100.00;99322.13;5110661;28;20195;-78
2022/11/03 02:15:17;;;;;;;11.73;3.67;;;;;;;9.01;100.00;99313.00;5110250;28;20289;-79
2022/11/03 02:17:47;;;;;;;13.33;3.30;;;;;;;8.98;100.00;99318.47;5109821;28;20211;-78
2022/11/03 02:20:19;;;;;;;12.57;3.50;;;;;;;9.02;100.00;99309.44;5109042;28;20637;-79
2022/11/03 02:23:23;;;;;;;12.93;3.53;;;;;;;8.95;100.00;99305.41;5109352;28;20187;-79
2022/11/03 02:25:55;;;;;;;9.00;3.20;;;;;;;8.90;100.00;99304.84;4979563;28;20220;-79
2022/11/03 02:28:26;;;;;;;9.07;3.57;;;;;;;8.88;100.00;99301.44;5099201;28;20206;-78
2022/11/03 02:31:04;;;;;;;10.47;3.37;;;;;;;8.89;100.00;99288.13;5113484;28;20219;-79
2022/11/03 02:33:43;;;;;;;9.03;3.17;;;;;;;8.93;100.00;99282.66;5113195;28;20187;-79
2022/11/03 02:36:18;;;;;;;11.47;3.37;;;;;;;8.82;100.00;99270.06;5110201;28;20194;-79
2022/11/03 02:38:54;;;;;;;9.47;3.30;;;;;;;8.71;100.00;99275.06;5111871;28;20197;-79
2022/11/03 02:41:25;;;;;;;12.13;4.17;;;;;;;8.78;100.00;99271.16;5110630;28;20240;-78
2022/11/03 02:43:55;;;;;;;11.80;3.77;;;;;;;8.68;100.00;99270.78;5117234;28;20241;-79
2022/11/03 02:46:26;;;;;;;12.87;3.77;;;;;;;8.79;100.00;99275.53;5114248;28;20199;-79
2022/11/03 02:48:56;;;;;;;14.17;4.00;;;;;;;8.70;100.00;99273.38;5112152;28;20199;-79
2022/11/03 02:51:25;;;;;;;9.87;3.40;;;;;;;8.70;100.00;99268.09;5108460;28;20247;-79
2022/11/03 02:54:04;;;;;;;10.67;3.87;;;;;;;8.75;100.00;99263.41;5111563;28;20202;-79
2022/11/03 02:56:37;;;;;;;13.17;3.77;;;;;;;8.63;100.00;99270.22;5117063;28;20720;-79
2022/11/03 02:59:10;;;;;;;9.17;4.17;;;;;;;8.69;100.00;99276.97;5116935;28;20194;-79
2022/11/03 03:01:46;;;;;;;10.03;3.33;;;;;;;8.72;100.00;99267.06;5117006;28;20198;-79
2022/11/03 03:04:23;;;;;;;12.77;3.57;;;;;;;8.65;100.00;99267.47;5116833;28;20285;-79
2022/11/03 03:07:00;;;;;;;11.73;4.10;;;;;;;8.71;100.00;99259.22;5000416;28;20194;-78
2022/11/03 03:09:34;;;;;;;13.83;3.73;;;;;;;8.69;100.00;99261.13;5032151;28;20683;-79
2022/11/03 03:12:08;;;;;;;9.43;3.50;;;;;;;8.71;100.00;99259.22;5027552;28;20193;-79
2022/11/03 03:14:40;;;;;;;11.83;3.87;;;;;;;8.70;100.00;99255.75;5033798;28;20213;-79
2022/11/03 03:17:14;;;;;;;12.27;3.70;;;;;;;8.70;100.00;99257.53;5027865;28;20218;-78
2022/11/03 03:19:49;;;;;;;11.33;3.47;;;;;;;8.56;100.00;99259.13;5034059;28;20201;-78
2022/11/03 03:22:24;;;;;;;13.47;4.20;;;;;;;8.57;100.00;99268.75;5029819;28;20193;-79
2022/11/03 03:24:59;;;;;;;11.63;3.93;;;;;;;8.66;100.00;99256.81;5033483;28;20221;-79
2022/11/03 03:27:34;;;;;;;11.10;3.83;;;;;;;8.73;100.00;99249.44;5113099;28;20201;-79
2022/11/03 03:30:05;;;;;;;13.40;4.23;;;;;;;8.72;100.00;99239.81;5116184;28;20194;-79
2022/11/03 03:32:37;;;;;;;11.53;4.03;;;;;;;8.50;100.00;99235.72;5112077;28;20195;-79
2022/11/03 03:35:10;;;;;;;15.10;3.67;;;;;;;8.45;100.00;99239.53;5113279;28;20191;-79
2022/11/03 03:37:44;;;;;;;10.93;3.90;;;;;;;8.53;100.00;99227.63;5109294;28;20246;-79
2022/11/03 03:40:20;;;;;;;9.40;3.77;;;;;;;8.44;100.00;99224.63;5112635;28;20206;-79
2022/11/03 03:45:51;;;;;;;10.93;3.43;;;;;;;8.38;100.00;99219.66;5088144;28;20195;-79
2022/11/03 03:48:21;;;;;;;10.83;3.73;;;;;;;8.37;100.00;99218.81;5114154;28;20187;-79
2022/11/03 03:50:51;;;;;;;13.07;3.70;;;;;;;8.30;100.00;99214.78;5113565;28;20183;-79
2022/11/03 03:53:20;;;;;;;15.43;4.60;;;;;;;8.32;100.00;99215.56;5110597;28;20219;-79
2022/11/03 03:55:51;;;;;;;14.63;4.33;;;;;;;8.21;100.00;99210.84;5111571;28;20198;-79
2022/11/03 03:58:22;;;;;;;13.23;4.23;;;;;;;8.15;100.00;99210.31;5112068;28;20211;-79
2022/11/03 04:00:51;;;;;;;15.10;4.50;;;;;;;8.06;100.00;99213.44;5112872;28;20191;-79
2022/11/03 04:03:22;;;;;;;12.00;4.37;;;;;;;8.11;100.00;99209.66;5112854;28;20202;-79
2022/11/03 04:05:51;;;;;;;8.13;3.57;;;;;;;8.11;100.00;99208.78;5113010;28;20194;-78
2022/11/03 04:08:20;;;;;;;12.43;4.20;;;;;;;8.08;100.00;99212.44;5111438;28;20260;-79
2022/11/03 04:22:20;;;;;;;16.07;4.00;;;;;;;8.11;100.00;99200.88;5116457;28;20195;-79
2022/11/03 04:24:51;;;;;;;12.97;4.10;;;;;;;8.12;100.00;99203.44;5115305;28;20191;-78
2022/11/03 04:27:28;;;;;;;7.53;4.10;;;;;;;8.11;100.00;99201.72;5115470;28;20225;-79
2022/11/03 04:30:02;;;;;;;11.33;3.83;;;;;;;7.99;100.00;99191.81;5112496;28;20198;-78
2022/11/03 04:32:31;;;;;;;12.07;3.90;;;;;;;7.98;100.00;99190.09;5107711;28;20221;-79
2022/11/03 04:35:14;;;;;;;10.87;4.00;;;;;;;7.85;100.00;99189.91;5115344;28;20199;-78
2022/11/03 04:37:43;;;;;;;10.87;4.40;;;;;;;7.81;100.00;99187.50;5104470;28;20283;-79
2022/11/03 04:40:16;;;;;;;12.67;3.83;;;;;;;7.82;100.00;99189.22;5110006;28;20242;-78
2022/11/03 04:42:46;;;;;;;12.73;4.00;;;;;;;7.89;100.00;99183.53;5114983;28;20277;-79
2022/11/03 04:45:23;;;;;;;13.43;3.70;;;;;;;7.94;100.00;99192.06;5061985;28;20187;-79
2022/11/03 04:47:52;;;;;;;13.27;3.73;;;;;;;7.97;100.00;99185.78;5111770;28;20234;-78
2022/11/03 04:50:23;;;;;;;12.40;3.90;;;;;;;7.94;100.00;99183.31;5115570;28;20240;-79
2022/11/03 04:52:56;;;;;;;13.40;4.10;;;;;;;7.97;100.00;99177.84;5113682;28;20654;-78
2022/11/03 04:55:25;;;;;;;9.67;3.77;;;;;;;8.00;100.00;99178.53;5071266;28;20191;-78
2022/11/03 04:57:58;;;;;;;12.43;4.30;;;;;;;7.73;100.00;99178.22;5008695;28;20219;-78
2022/11/03 05:00:28;;;;;;;10.40;3.50;;;;;;;7.81;100.00;99169.03;4977158;28;20229;-78
2022/11/03 05:02:56;;;;;;;10.40;3.90;;;;;;;7.83;100.00;99167.19;5008911;28;20186;-78
2022/11/03 05:05:26;;;;;;;14.17;4.10;;;;;;;7.89;100.00;99174.78;5021323;28;20222;-80
2022/11/03 05:07:56;;;;;;;12.07;3.90;;;;;;;7.89;100.00;99170.34;5022119;28;20194;-78
2022/11/03 05:10:28;;;;;;;13.67;3.80;;;;;;;7.78;100.00;99166.56;5014832;28;20205;-81
2022/11/03 05:12:58;;;;;;;15.67;4.10;;;;;;;7.83;100.00;99157.50;5009962;28;20650;-78
2022/11/03 05:15:36;;;;;;;11.77;4.27;;;;;;;7.91;100.00;99160.59;5033478;28;20250;-78
2022/11/03 05:18:16;;;;;;;10.23;4.30;;;;;;;7.83;100.00;99154.88;5078550;28;20697;-78
2022/11/03 05:20:50;;;;;;;15.23;4.10;;;;;;;7.96;100.00;99155.06;5111399;28;20202;-80
2022/11/03 05:23:20;;;;;;;11.53;4.07;;;;;;;7.97;100.00;99144.41;5112860;28;20187;-78
2022/11/03 05:25:51;;;;;;;13.47;3.73;;;;;;;7.86;100.00;99140.66;5060563;28;20319;-78
2022/11/03 05:28:26;;;;;;;15.37;3.50;;;;;;;7.84;100.00;99143.38;5106141;28;20194;-78
2022/11/03 05:30:56;;;;;;;9.37;3.60;;;;;;;7.73;100.00;99138.69;5114010;28;20198;-78
2022/11/03 05:33:28;;;;;;;12.40;3.77;;;;;;;7.78;100.00;99132.31;5114101;28;20187;-78
2022/11/03 05:36:06;;;;;;;9.13;3.53;;;;;;;7.56;100.00;99130.81;5113725;28;20194;-78
2022/11/03 05:38:36;;;;;;;10.20;3.90;;;;;;;7.50;100.00;99133.75;5112435;28;20232;-78
2022/11/03 05:41:12;;;;;;;11.97;3.73;;;;;;;7.60;100.00;99132.34;5109350;28;20300;-78
2022/11/03 05:43:41;;;;;;;15.37;3.93;;;;;;;7.59;100.00;99135.91;5062275;28;20699;-78
2022/11/03 05:46:12;;;;;;;7.23;3.60;;;;;;;7.57;100.00;99136.91;5110964;28;20244;-78
2022/11/03 05:48:42;;;;;;;12.70;4.10;;;;;;;7.60;100.00;99137.59;5104847;28;20199;-79
2022/11/03 05:51:18;;;;;;;12.90;3.83;;;;;;;7.58;100.00;99142.09;5113769;28;20194;-79
2022/11/03 05:53:51;;;;;;;11.47;4.07;;;;;;;7.54;100.00;99137.09;5112663;28;20198;-79
2022/11/03 05:56:24;;;;;;;9.27;3.90;;;;;;;7.51;100.00;99137.22;5110232;28;20244;-78
2022/11/03 05:58:55;;;;;;;12.30;4.17;;;;;;;7.54;100.00;99134.47;5078013;28;20226;-79
2022/11/03 06:01:30;;;;;;;8.70;3.43;;;;;;;7.42;100.00;99141.19;5111081;28;20190;-79
2022/11/03 06:04:14;;;;;;;12.20;3.60;;;;;;;7.53;100.00;99133.59;5113459;28;20281;-79
2022/11/03 06:06:42;;;;;;;9.70;3.83;;;;;;;7.52;100.00;99131.03;5113017;28;20198;-78
2022/11/03 06:09:16;;;;;;;7.03;3.73;;;;;;;7.62;100.00;99121.69;5063169;28;20237;-79
2022/11/03 06:11:45;;;;;;;11.57;4.27;;;;;;;7.63;100.00;99120.81;5113248;28;20244;-79
2022/11/03 06:14:19;;;;;;;6.87;3.50;;;;;;;7.73;100.00;99120.22;5108683;28;20223;-79
2022/11/03 06:16:57;;;;;;;11.00;3.97;;;;;;;7.70;100.00;99116.88;5108218;28;20199;-79
2022/11/03 06:19:30;;;;;;;8.87;4.13;;;;;;;7.68;100.00;99127.50;5110982;28;20219;-78
2022/11/03 06:22:02;;;;;;;10.53;4.03;;;;;;;7.70;100.00;99120.38;5112313;28;20211;-79
2022/11/03 06:24:36;;;;;;;8.60;3.77;;;;;;;7.79;100.00;99124.31;5113450;28;20187;-79
2022/11/03 06:27:06;;;;;;;13.67;4.07;;;;;;;7.79;100.00;99121.66;5108439;28;20288;-79
2022/11/03 06:29:34;;;;;;;11.80;4.07;;;;;;;7.84;100.00;99124.06;5105163;28;20198;-79
2022/11/03 06:32:10;;;;;;;15.00;3.70;;;;;;;7.88;100.00;99115.06;5010618;28;20261;-79
2022/11/03 06:34:46;;;;;;;8.93;3.73;;;;;;;7.90;100.00;99119.31;5009365;28;20201;-82
2022/11/03 06:37:20;;;;;;;16.80;6.00;;;;;;;7.89;100.00;99119.38;5009745;28;20190;-79
2022/11/03 06:39:58;;;;;;;22.17;14.57;;;;;;;7.80;100.00;99115.47;5007403;28;20365;-79
2022/11/03 06:42:29;;;;;;;34.73;23.60;;;;;;;7.71;100.00;99105.41;5002716;28;20236;-79
2022/11/03 06:45:01;;;;;;;24.67;13.80;;;;;;;7.64;100.00;99099.63;5002620;28;20195;-79
2022/11/03 06:47:31;;;;;;;31.90;25.10;;;;;;;7.53;100.00;99099.34;4960071;28;20203;-79
2022/11/03 06:50:00;;;;;;;22.13;12.57;;;;;;;7.60;100.00;99091.94;5008177;28;20260;-79
2022/11/03 06:52:33;;;;;;;15.97;8.47;;;;;;;7.65;100.00;99085.50;5007374;28;20674;-79
2022/11/03 06:55:21;;;;;;;8.70;5.03;;;;;;;7.60;100.00;99079.63;5011087;28;20200;-79
2022/11/03 06:57:54;;;;;;;12.10;6.97;;;;;;;7.51;100.00;99082.75;5102866;28;20227;-79
2022/11/03 07:00:25;;;;;;;15.80;5.43;;;;;;;7.56;100.00;99072.81;5108992;28;20222;-80
2022/11/03 07:03:18;;;;;;;11.23;6.80;;;;;;;7.74;100.00;99082.38;5107555;28;20202;-79
2022/11/03 07:05:47;;;;;;;8.30;4.73;;;;;;;7.61;100.00;99073.41;5108111;28;20198;-80
2022/11/03 07:08:22;;;;;;;9.33;4.50;;;;;;;7.78;100.00;99077.78;5111630;28;20195;-79
2022/11/03 07:10:57;;;;;;;8.53;4.10;;;;;;;7.74;100.00;99076.25;5108973;28;20191;-79
2022/11/03 07:13:28;;;;;;;9.60;3.80;;;;;;;7.80;100.00;99067.16;5105797;28;20198;-79
2022/11/03 07:15:58;;;;;;;9.20;3.73;;;;;;;7.82;100.00;99060.88;5049718;28;20217;-79
2022/11/03 07:18:34;;;;;;;8.60;3.93;;;;;;;7.81;100.00;99053.03;5050102;28;20185;-80
2022/11/03 07:21:07;;;;;;;10.57;3.37;;;;;;;7.92;100.00;99048.91;5044926;28;20250;-79
2022/11/03 07:23:35;;;;;;;12.07;2.97;;;;;;;8.05;100.00;99046.44;5048894;28;20193;-79
2022/11/03 07:26:08;;;;;;;10.50;3.20;;;;;;;7.90;100.00;99050.75;5046715;28;20196;-79
2022/11/03 07:28:39;;;;;;;9.17;3.40;;;;;;;8.01;100.00;99048.41;5050412;28;20250;-79
2022/11/03 07:31:16;;;;;;;7.70;2.90;;;;;;;8.09;100.00;99047.09;4984682;28;20255;-79
2022/11/03 07:33:46;;;;;;;7.77;2.90;;;;;;;8.20;100.00;99031.50;5047125;28;20248;-79
2022/11/03 07:36:20;;;;;;;9.73;3.23;;;;;;;8.22;100.00;99030.50;5073815;28;20195;-80
2022/11/03 07:38:51;;;;;;;9.33;3.00;;;;;;;8.40;100.00;99039.22;5069767;28;20250;-80
2022/11/03 07:41:23;;;;;;;8.70;2.57;;;;;;;8.29;100.00;99034.47;5069506;28;20189;-79
2022/11/03 07:44:00;;;;;;;9.17;3.17;;;;;;;8.19;100.00;99035.94;5068211;28;20202;-80
2022/11/03 07:46:32;;;;;;;9.47;3.00;;;;;;;8.40;100.00;99038.38;5068391;28;20215;-79
2022/11/03 07:49:03;;;;;;;11.30;3.30;;;;;;;8.30;100.00;99025.66;5039355;28;20193;-79
2022/11/03 07:51:33;;;;;;;10.03;2.90;;;;;;;8.46;100.00;99024.78;5069398;28;20208;-79
2022/11/03 07:54:10;;;;;;;8.93;2.70;;;;;;;8.58;100.00;99022.28;5072027;28;20192;-79
2022/11/03 07:56:43;;;;;;;9.43;2.77;;;;;;;8.58;100.00;99022.28;5109257;28;20199;-79
2022/11/03 07:59:16;;;;;;;13.33;3.10;;;;;;;8.59;100.00;99008.19;5110255;28;20215;-79
2022/11/03 08:01:48;;;;;;;7.77;2.97;;;;;;;8.76;100.00;99001.03;5111832;28;20488;-79
2022/11/03 08:04:22;;;;;;;10.90;3.27;;;;;;;8.84;100.00;98990.88;5117248;28;20187;-79
2022/11/03 08:06:51;;;;;;;8.10;3.07;;;;;;;8.81;100.00;98984.00;5111592;28;20239;-79
2022/11/03 08:09:21;;;;;;;6.27;2.90;;;;;;;8.88;100.00;98987.13;5113052;28;20203;-79
2022/11/03 08:11:50;;;;;;;15.30;3.10;;;;;;;9.07;100.00;98977.16;5112702;28;20199;-79
2022/11/03 08:14:18;;;;;;;13.47;3.30;;;;;;;9.10;100.00;98976.94;5106841;28;20223;-79
2022/11/03 08:16:47;;;;;;;7.17;3.17;;;;;;;9.35;100.00;98971.00;5112635;28;20226;-79
2022/11/03 08:19:15;;;;;;;11.53;3.37;;;;;;;9.39;100.00;98969.03;5106115;28;20222;-79
2022/11/03 08:21:45;;;;;;;11.63;3.37;;;;;;;9.52;100.00;98964.66;5105395;28;20252;-79
2022/11/03 08:24:14;;;;;;;7.07;2.80;;;;;;;9.59;100.00;98960.69;5105569;28;20222;-79
2022/11/03 08:26:43;;;;;;;10.67;3.13;;;;;;;9.68;100.00;98948.69;5110003;28;20195;-79
2022/11/03 08:29:11;;;;;;;9.17;3.20;;;;;;;9.67;100.00;98947.00;5108604;28;20202;-79
2022/11/03 08:31:40;;;;;;;8.10;3.10;;;;;;;9.77;100.00;98936.66;5111596;28;20202;-79
2022/11/03 08:34:08;;;;;;;8.43;3.07;;;;;;;9.96;100.00;98927.44;5107266;28;20244;-80
2022/11/03 08:36:38;;;;;;;9.43;3.27;;;;;;;10.00;100.00;98934.22;5108227;28;20194;-79
2022/11/03 08:39:11;;;;;;;11.63;3.10;;;;;;;10.09;100.00;98930.13;5114698;28;20236;-79
2022/11/03 08:41:40;;;;;;;6.97;2.80;;;;;;;10.08;100.00;98927.59;5071749;28;20496;-82
2022/11/03 08:44:09;;;;;;;9.67;3.93;;;;;;;10.20;100.00;98924.13;5110925;28;20728;-79
2022/11/03 08:46:37;;;;;;;8.80;3.43;;;;;;;10.32;100.00;98904.81;5063192;28;20195;-79
2022/11/03 08:49:05;;;;;;;6.50;2.73;;;;;;;10.31;100.00;98892.53;5115042;28;20645;-79
2022/11/03 08:51:33;;;;;;;7.70;3.20;;;;;;;10.38;100.00;98877.09;5030026;28;20191;-79
2022/11/03 08:54:07;;;;;;;7.60;2.90;;;;;;;10.51;100.00;98880.59;5112006;28;20209;-79
2022/11/03 08:56:45;;;;;;;11.60;3.43;;;;;;;10.54;100.00;98870.66;5104859;28;20207;-78
2022/11/03 08:59:16;;;;;;;8.77;3.20;;;;;;;10.23;100.00;98881.59;5108388;28;20205;-79
2022/11/03 09:01:46;;;;;;;9.60;3.40;;;;;;;10.35;100.00;98872.00;5110104;28;20199;-79
2022/11/03 09:04:14;;;;;;;8.53;3.63;;;;;;;10.55;100.00;98885.59;5010766;28;20289;-79
2022/11/03 09:06:46;;;;;;;9.47;3.07;;;;;;;10.76;100.00;98890.34;5010523;28;20334;-79
2022/11/03 09:09:14;;;;;;;7.97;2.93;;;;;;;10.74;100.00;98885.16;5006751;28;20248;-79
2022/11/03 09:12:05;;;;;;;7.13;3.43;;;;;;;10.77;100.00;98881.44;5011849;28;20198;-79
2022/11/03 09:14:34;;;;;;;8.40;3.37;;;;;;;11.19;100.00;98869.63;5011641;28;20226;-79
2022/11/03 09:17:03;;;;;;;9.10;3.27;;;;;;;11.21;100.00;98867.75;5009965;28;20193;-79
2022/11/03 09:19:31;;;;;;;9.80;3.77;;;;;;;11.30;100.00;98859.13;5009350;28;20201;-79
2022/11/03 09:22:01;;;;;;;11.60;3.93;;;;;;;11.50;100.00;98838.28;5035904;28;20207;-79
2022/11/03 09:24:30;;;;;;;7.27;3.67;;;;;;;11.73;100.00;98832.97;5093479;28;20392;-79
2022/11/03 09:27:00;;;;;;;7.73;3.50;;;;;;;11.69;100.00;98843.94;5088130;28;20253;-79
2022/11/03 09:29:31;;;;;;;9.47;3.80;;;;;;;11.98;100.00;98853.25;5090973;28;20198;-79
2022/11/03 09:32:20;;;;;;;12.47;3.93;;;;;;;12.03;100.00;98843.13;5093888;28;20701;-79
2022/11/03 09:34:50;;;;;;;7.90;3.50;;;;;;;12.25;100.00;98841.50;5090180;28;20204;-79
2022/11/03 09:37:21;;;;;;;9.27;3.80;;;;;;;12.37;100.00;98845.91;5086658;28;20230;-79
2022/11/03 09:39:52;;;;;;;9.07;3.60;;;;;;;12.34;100.00;98848.78;5075564;28;20198;-79
2022/11/03 09:42:20;;;;;;;11.80;3.50;;;;;;;12.34;100.00;98827.53;5090598;28;20196;-79
2022/11/03 09:44:52;;;;;;;10.53;3.87;;;;;;;12.30;100.00;98816.31;5089913;28;20233;-79
2022/11/03 09:47:24;;;;;;;7.20;3.93;;;;;;;12.11;100.00;98816.00;5085751;28;20212;-79
2022/11/03 09:49:52;;;;;;;10.17;3.73;;;;;;;12.28;100.00;98807.63;5093034;28;20219;-79
2022/11/03 09:52:23;;;;;;;8.37;3.83;;;;;;;12.12;100.00;98809.75;5088491;28;20203;-79
2022/11/03 09:54:54;;;;;;;9.63;3.50;;;;;;;12.45;100.00;98801.00;5086830;28;20192;-79
2022/11/03 09:57:27;;;;;;;10.70;3.57;;;;;;;12.50;100.00;98790.88;5091906;28;20191;-80
2022/11/03 09:59:57;;;;;;;10.37;3.87;;;;;;;12.47;100.00;98788.44;5089100;28;20199;-79
2022/11/03 10:02:28;;;;;;;7.10;3.40;;;;;;;12.52;100.00;98788.06;5093075;28;20199;-79
2022/11/03 10:04:59;;;;;;;10.73;4.03;;;;;;;12.19;100.00;98778.25;5090308;28;20220;-79
2022/11/03 10:07:32;;;;;;;10.80;3.50;;;;;;;12.24;100.00;98770.78;5091611;28;20237;-79
2022/11/03 10:10:01;;;;;;;9.17;3.70;;;;;;;12.18;100.00;98772.09;5093029;28;20188;-79
2022/11/03 10:12:35;;;;;;;12.83;3.77;;;;;;;12.27;100.00;98768.75;5058765;28;20221;-79
2022/11/03 10:15:14;;;;;;;6.60;3.67;;;;;;;12.08;100.00;98764.97;5099638;28;20221;-79
2022/11/03 10:17:45;;;;;;;9.50;3.53;;;;;;;12.25;100.00;98746.75;5107538;28;20203;-79
2022/11/03 10:20:15;;;;;;;14.17;4.03;;;;;;;12.09;100.00;98740.97;5027204;28;20190;-79
2022/11/03 10:22:46;;;;;;;8.13;3.57;;;;;;;12.07;100.00;98736.75;5013923;28;20209;-79
2022/11/03 10:25:34;;;;;;;6.87;3.33;;;;;;;12.16;100.00;98736.88;4971710;28;20196;-79
2022/11/03 10:28:14;;;;;;;8.23;3.50;;;;;;;12.40;100.00;98730.59;4965158;28;20194;-79
2022/11/03 10:30:56;;;;;;;8.93;3.50;;;;;;;12.56;100.00;98720.47;4936579;28;20231;-79
2022/11/03 10:33:40;;;;;;;8.60;3.20;;;;;;;12.52;100.00;98711.88;4967380;28;20264;-79
2022/11/03 10:36:24;;;;;;;8.93;3.40;;;;;;;12.65;100.00;98708.28;4967903;28;20210;-79
2022/11/03 10:38:52;;;;;;;6.97;3.37;;;;;;;12.72;100.00;98712.94;5021550;28;20710;-79
2022/11/03 10:41:22;;;;;;;5.97;3.27;;;;;;;12.83;100.00;98697.00;5047585;28;20217;-79
2022/11/03 10:44:03;;;;;;;6.67;3.03;;;;;;;12.75;100.00;98693.28;5090039;28;20183;-79
2022/11/03 10:46:33;;;;;;;10.37;3.40;;;;;;;12.69;100.00;98685.78;5108719;28;20191;-79
2022/11/03 10:49:19;;;;;;;7.03;3.00;;;;;;;12.77;100.00;98667.44;5108831;28;20256;-79
2022/11/03 10:51:51;;;;;;;8.27;3.20;;;;;;;12.59;100.00;98661.78;5109514;28;20256;-79
2022/11/03 10:54:22;;;;;;;8.93;3.20;;;;;;;12.76;100.00;98661.28;5110253;28;20274;-80
2022/11/03 10:56:51;;;;;;;9.50;3.40;;;;;;;12.63;100.00;98646.41;5113047;28;20187;-79
2022/11/03 10:59:22;;;;;;;10.87;3.60;;;;;;;12.72;100.00;98633.22;5113078;28;20191;-79
2022/11/03 11:01:53;;;;;;;9.07;3.60;;;;;;;12.65;100.00;98617.94;5108747;28;20762;-79
2022/11/03 11:04:21;;;;;;;11.97;3.70;;;;;;;12.60;100.00;98610.31;5116891;28;20194;-79
2022/11/03 11:06:51;;;;;;;8.87;3.30;;;;;;;12.64;100.00;98609.09;5111228;28;20199;-79
2022/11/03 11:09:24;;;;;;;7.67;3.37;;;;;;;12.86;100.00;98614.38;5110242;28;20182;-79
2022/11/03 11:12:00;;;;;;;8.93;3.40;;;;;;;12.77;100.00;98623.09;5116749;28;20194;-79
2022/11/03 11:14:51;;;;;;;6.80;3.30;;;;;;;12.80;100.00;98622.00;5116561;28;20222;-79
2022/11/03 11:17:49;;;;;;;7.60;2.97;;;;;;;12.89;100.00;98621.22;5111038;28;20202;-79
2022/11/03 11:20:33;;;;;;;7.30;3.17;;;;;;;12.80;100.00;98619.31;5113448;28;20207;-79
2022/11/03 11:23:47;;;;;;;8.50;3.40;;;;;;;12.81;100.00;98597.94;5113028;28;20198;-79
2022/11/03 11:26:30;;;;;;;8.30;4.10;;;;;;;12.83;100.00;98589.84;5069512;28;20202;-79
2022/11/03 11:29:45;;;;;;;6.57;3.53;;;;;;;12.76;100.00;98592.16;5116980;28;20641;-79
2022/11/03 11:32:58;;;;;;;10.50;3.80;;;;;;;12.67;100.00;98586.78;5116187;28;20217;-80
2022/11/03 11:36:05;;;;;;;8.07;3.60;;;;;;;12.83;100.00;98574.72;5119350;28;20195;-79
2022/11/03 11:39:10;;;;;;;8.40;4.40;;;;;;;12.94;100.00;98571.22;5082618;28;20198;-79
2022/11/03 11:42:08;;;;;;;9.97;4.10;;;;;;;12.93;100.00;98566.84;5108257;28;20246;-79
2022/11/03 11:44:55;;;;;;;8.77;3.87;;;;;;;13.12;100.00;98552.84;5033275;28;20277;-79
2022/11/03 11:47:47;;;;;;;7.57;3.07;;;;;;;13.10;100.00;98547.66;5033279;28;20309;-79
2022/11/03 11:50:30;;;;;;;16.70;6.60;;;;;;;13.02;100.00;98544.81;5033177;28;20190;-79
2022/11/03 11:53:14;;;;;;;7.50;3.67;;;;;;;13.02;100.00;98534.16;5028513;28;20205;-79
2022/11/03 11:55:55;;;;;;;7.63;3.53;;;;;;;13.07;100.00;98523.16;5033464;28;20560;-79
2022/11/03 11:58:29;;;;;;;8.03;3.60;;;;;;;12.96;100.00;98520.56;5032330;28;20190;-79
2022/11/03 12:01:01;;;;;;;8.53;3.53;;;;;;;12.92;100.00;98511.16;5033134;28;20232;-79
2022/11/03 12:03:33;;;;;;;10.33;4.20;;;;;;;12.97;100.00;98499.19;5097453;28;20230;-79
2022/11/03 12:06:04;;;;;;;6.50;3.63;;;;;;;12.86;100.00;98491.25;5113062;28;20657;-79
2022/11/03 12:08:33;;;;;;;7.20;3.83;;;;;;;12.86;100.00;98494.75;5105406;28;20231;-79
2022/11/03 12:11:04;;;;;;;6.73;3.60;;;;;;;12.97;100.00;98493.00;5108114;28;20577;-79
2022/11/03 12:13:42;;;;;;;10.60;4.37;;;;;;;13.06;100.00;98489.56;5110614;28;20199;-79